sensor_id;sensor_type;location;lat;lon;timestamp;pressure;altitude;pressure_sealevel;temperature;humidity
75717;BME280;64333;50.138;14.332;2022-10-22T00:01:56;97882.66;;;7.43;100.00
75717;BME280;64333;50.138;14.332;2022-10-22T00:04:22;97875.19;;;7.37;100.00
75717;BME280;64333;50.138;14.332;2022-10-22T00:06:47;97880.50;;;7.32;100.00
75717;BME280;64333;50.138;14.332;2022-10-22T00:09:13;97866.31;;;7.22;100.00
75717;BME280;64333;50.138;14.332;2022-10-22T00:11:39;97875.88;;;7.19;100.00
75717;BME280;64333;50.138;14.332;2022-10-22T00:14:05;97882.78;;;7.17;100.00
75717;BME280;64333;50.138;14.332;2022-10-22T00:16:30;97881.44;;;7.07;100.00
75717;BME280;64333;50.138;14.332;2022-10-22T00:18:56;97880.78;;;7.02;100.00
75717;BME280;64333;50.138;14.332;2022-10-22T00:21:21;97878.22;;;7.02;100.00
75717;BME280;64333;50.138;14.332;2022-10-22T00:23:46;97879.19;;;6.99;100.00
75717;BME280;64333;50.138;14.332;2022-10-22T00:26:12;97874.53;;;7.09;100.00
75717;BME280;64333;50.138;14.332;2022-10-22T00:28:38;97881.22;;;7.13;100.00
75717;BME280;64333;50.138;14.332;2022-10-22T00:31:04;97867.97;;;7.02;100.00
75717;BME280;64333;50.138;14.332;2022-10-22T00:33:29;97870.53;;;7.02;100.00
75717;BME280;64333;50.138;14.332;2022-10-22T00:35:55;97873.19;;;6.99;100.00
75717;BME280;64333;50.138;14.332;2022-10-22T00:38:20;97871.53;;;6.98;100.00
75717;BME280;64333;50.138;14.332;2022-10-22T00:40:46;97874.34;;;6.90;100.00
75717;BME280;64333;50.138;14.332;2022-10-22T00:43:14;97872.84;;;6.85;100.00
75717;BME280;64333;50.138;14.332;2022-10-22T00:45:40;97876.41;;;6.81;100.00
75717;BME280;64333;50.138;14.332;2022-10-22T00:48:14;97874.09;;;6.75;100.00
75717;BME280;64333;50.138;14.332;2022-10-22T00:53:19;97880.88;;;6.76;100.00
75717;BME280;64333;50.138;14.332;2022-10-22T00:55:47;97884.22;;;6.78;100.00
75717;BME280;64333;50.138;14.332;2022-10-22T00:58:13;97897.75;;;6.83;100.00
75717;BME280;64333;50.138;14.332;2022-10-22T01:00:39;97890.94;;;6.82;100.00
75717;BME280;64333;50.138;14.332;2022-10-22T01:03:06;97889.25;;;6.81;100.00
75717;BME280;64333;50.138;14.332;2022-10-22T01:05:53;97897.94;;;6.77;100.00
75717;BME280;64333;50.138;14.332;2022-10-22T01:11:07;97890.28;;;6.75;100.00
75717;BME280;64333;50.138;14.332;2022-10-22T01:19:24;97869.94;;;6.94;100.00
75717;BME280;64333;50.138;14.332;2022-10-22T01:22:02;97861.28;;;6.96;100.00
75717;BME280;64333;50.138;14.332;2022-10-22T01:24:52;97863.13;;;6.93;100.00
75717;BME280;64333;50.138;14.332;2022-10-22T01:30:27;97848.25;;;6.79;100.00
75717;BME280;64333;50.138;14.332;2022-10-22T01:32:56;97845.03;;;6.73;100.00
75717;BME280;64333;50.138;14.332;2022-10-22T01:35:27;97839.81;;;6.76;100.00
75717;BME280;64333;50.138;14.332;2022-10-22T01:37:57;97837.34;;;6.73;100.00
75717;BME280;64333;50.138;14.332;2022-10-22T01:40:24;97833.78;;;6.77;100.00
75717;BME280;64333;50.138;14.332;2022-10-22T01:43:09;97836.56;;;6.71;100.00
75717;BME280;64333;50.138;14.332;2022-10-22T01:45:41;97849.66;;;6.63;100.00
75717;BME280;64333;50.138;14.332;2022-10-22T01:48:18;97860.00;;;6.62;100.00
75717;BME280;64333;50.138;14.332;2022-10-22T01:54:10;97864.25;;;6.63;100.00
75717;BME280;64333;50.138;14.332;2022-10-22T01:57:03;97856.63;;;6.60;100.00
75717;BME280;64333;50.138;14.332;2022-10-22T02:02:42;97855.75;;;6.61;100.00
75717;BME280;64333;50.138;14.332;2022-10-22T02:05:27;97864.28;;;6.61;100.00
75717;BME280;64333;50.138;14.332;2022-10-22T02:08:17;97853.13;;;6.62;100.00
75717;BME280;64333;50.138;14.332;2022-10-22T02:10:45;97839.19;;;6.69;100.00
75717;BME280;64333;50.138;14.332;2022-10-22T02:13:20;97838.97;;;6.75;100.00
75717;BME280;64333;50.138;14.332;2022-10-22T02:15:48;97842.44;;;6.74;100.00
75717;BME280;64333;50.138;14.332;2022-10-22T02:18:16;97841.59;;;6.74;100.00
75717;BME280;64333;50.138;14.332;2022-10-22T02:20:43;97842.38;;;6.76;100.00
75717;BME280;64333;50.138;14.332;2022-10-22T02:23:09;97851.06;;;6.72;100.00
75717;BME280;64333;50.138;14.332;2022-10-22T02:25:38;97851.19;;;6.69;100.00
75717;BME280;64333;50.138;14.332;2022-10-22T02:30:44;97849.44;;;6.69;100.00
75717;BME280;64333;50.138;14.332;2022-10-22T02:33:18;97843.53;;;6.67;100.00
75717;BME280;64333;50.138;14.332;2022-10-22T02:35:45;97834.41;;;6.60;100.00
75717;BME280;64333;50.138;14.332;2022-10-22T02:38:12;97835.22;;;6.61;100.00
75717;BME280;64333;50.138;14.332;2022-10-22T02:40:38;97853.28;;;6.58;100.00
75717;BME280;64333;50.138;14.332;2022-10-22T02:43:04;97858.22;;;6.64;100.00
75717;BME280;64333;50.138;14.332;2022-10-22T02:45:30;97839.31;;;6.66;100.00
75717;BME280;64333;50.138;14.332;2022-10-22T02:47:56;97841.53;;;6.75;100.00
75717;BME280;64333;50.138;14.332;2022-10-22T02:50:22;97836.34;;;6.77;100.00
75717;BME280;64333;50.138;14.332;2022-10-22T02:52:47;97829.81;;;6.68;100.00
75717;BME280;64333;50.138;14.332;2022-10-22T02:55:13;97864.25;;;6.86;100.00
75717;BME280;64333;50.138;14.332;2022-10-22T02:57:38;97856.75;;;6.80;100.00
75717;BME280;64333;50.138;14.332;2022-10-22T03:00:05;97873.91;;;6.79;100.00
75717;BME280;64333;50.138;14.332;2022-10-22T03:02:30;97861.81;;;6.83;100.00
75717;BME280;64333;50.138;14.332;2022-10-22T03:04:56;97861.59;;;6.89;100.00
75717;BME280;64333;50.138;14.332;2022-10-22T03:07:22;97848.84;;;6.86;100.00
75717;BME280;64333;50.138;14.332;2022-10-22T03:09:47;97848.41;;;6.75;100.00
75717;BME280;64333;50.138;14.332;2022-10-22T03:12:12;97873.09;;;6.77;100.00
75717;BME280;64333;50.138;14.332;2022-10-22T03:14:38;97878.88;;;6.84;100.00
75717;BME280;64333;50.138;14.332;2022-10-22T03:17:03;97883.69;;;6.93;100.00
75717;BME280;64333;50.138;14.332;2022-10-22T03:19:29;97868.00;;;7.00;100.00
75717;BME280;64333;50.138;14.332;2022-10-22T03:21:58;97866.03;;;7.07;100.00
75717;BME280;64333;50.138;14.332;2022-10-22T03:24:26;97866.66;;;7.13;100.00
75717;BME280;64333;50.138;14.332;2022-10-22T03:26:53;97844.44;;;7.12;100.00
75717;BME280;64333;50.138;14.332;2022-10-22T03:29:21;97834.53;;;7.25;100.00
75717;BME280;64333;50.138;14.332;2022-10-22T03:31:47;97842.69;;;7.36;100.00
75717;BME280;64333;50.138;14.332;2022-10-22T03:34:13;97857.03;;;7.41;100.00
75717;BME280;64333;50.138;14.332;2022-10-22T03:36:39;97861.09;;;7.47;100.00
75717;BME280;64333;50.138;14.332;2022-10-22T03:39:06;97860.97;;;7.50;100.00
75717;BME280;64333;50.138;14.332;2022-10-22T03:41:32;97857.16;;;7.60;100.00
75717;BME280;64333;50.138;14.332;2022-10-22T03:44:00;97867.38;;;7.61;100.00
75717;BME280;64333;50.138;14.332;2022-10-22T03:46:27;97848.47;;;7.62;100.00
75717;BME280;64333;50.138;14.332;2022-10-22T03:48:52;97841.38;;;7.69;100.00
75717;BME280;64333;50.138;14.332;2022-10-22T03:51:18;97841.00;;;7.78;100.00
75717;BME280;64333;50.138;14.332;2022-10-22T03:53:43;97837.06;;;7.91;100.00
75717;BME280;64333;50.138;14.332;2022-10-22T03:56:09;97849.22;;;8.07;100.00
75717;BME280;64333;50.138;14.332;2022-10-22T03:58:36;97855.94;;;8.11;100.00
75717;BME280;64333;50.138;14.332;2022-10-22T04:01:06;97869.56;;;8.13;100.00
75717;BME280;64333;50.138;14.332;2022-10-22T04:03:32;97881.31;;;8.20;100.00
75717;BME280;64333;50.138;14.332;2022-10-22T04:06:05;97894.81;;;8.25;100.00
75717;BME280;64333;50.138;14.332;2022-10-22T04:08:31;97888.78;;;8.26;100.00
75717;BME280;64333;50.138;14.332;2022-10-22T04:10:57;97873.53;;;8.22;100.00
75717;BME280;64333;50.138;14.332;2022-10-22T04:13:22;97868.25;;;8.25;100.00
75717;BME280;64333;50.138;14.332;2022-10-22T04:15:47;97875.75;;;8.29;100.00
75717;BME280;64333;50.138;14.332;2022-10-22T04:18:13;97892.09;;;8.28;100.00
75717;BME280;64333;50.138;14.332;2022-10-22T04:20:40;97896.94;;;8.36;100.00
75717;BME280;64333;50.138;14.332;2022-10-22T04:23:05;97889.09;;;8.39;98.98
75717;BME280;64333;50.138;14.332;2022-10-22T04:25:31;97891.75;;;8.37;99.22
75717;BME280;64333;50.138;14.332;2022-10-22T04:27:56;97877.28;;;8.35;99.84
75717;BME280;64333;50.138;14.332;2022-10-22T04:30:21;97879.69;;;8.38;99.20
75717;BME280;64333;50.138;14.332;2022-10-22T04:32:46;97881.25;;;8.42;99.08
75717;BME280;64333;50.138;14.332;2022-10-22T04:35:12;97873.44;;;8.43;98.22
75717;BME280;64333;50.138;14.332;2022-10-22T04:37:37;97873.34;;;8.46;97.33
75717;BME280;64333;50.138;14.332;2022-10-22T04:40:03;97880.31;;;8.44;97.00
75717;BME280;64333;50.138;14.332;2022-10-22T04:42:29;97886.16;;;8.48;96.79
75717;BME280;64333;50.138;14.332;2022-10-22T04:44:54;97881.38;;;8.39;96.45
75717;BME280;64333;50.138;14.332;2022-10-22T04:47:19;97894.03;;;8.43;97.07
75717;BME280;64333;50.138;14.332;2022-10-22T04:49:48;97886.25;;;8.45;97.48
75717;BME280;64333;50.138;14.332;2022-10-22T04:52:16;97875.84;;;8.48;97.38
75717;BME280;64333;50.138;14.332;2022-10-22T04:54:41;97881.56;;;8.54;97.94
75717;BME280;64333;50.138;14.332;2022-10-22T04:57:07;97863.44;;;8.57;96.63
75717;BME280;64333;50.138;14.332;2022-10-22T04:59:32;97862.34;;;8.63;96.02
75717;BME280;64333;50.138;14.332;2022-10-22T05:01:57;97873.13;;;8.71;96.51
75717;BME280;64333;50.138;14.332;2022-10-22T05:04:23;97868.69;;;8.74;96.27
75717;BME280;64333;50.138;14.332;2022-10-22T05:06:48;97874.03;;;8.70;97.50
75717;BME280;64333;50.138;14.332;2022-10-22T05:09:16;97868.25;;;8.65;98.61
75717;BME280;64333;50.138;14.332;2022-10-22T05:11:44;97866.25;;;8.71;98.77
75717;BME280;64333;50.138;14.332;2022-10-22T05:14:12;97864.25;;;8.78;99.92
75717;BME280;64333;50.138;14.332;2022-10-22T05:16:39;97868.28;;;8.83;99.68
75717;BME280;64333;50.138;14.332;2022-10-22T05:19:05;97861.59;;;8.79;99.83
75717;BME280;64333;50.138;14.332;2022-10-22T05:21:31;97866.88;;;8.76;100.00
75717;BME280;64333;50.138;14.332;2022-10-22T05:23:57;97872.88;;;8.77;100.00
75717;BME280;64333;50.138;14.332;2022-10-22T05:26:26;97877.16;;;8.76;100.00
75717;BME280;64333;50.138;14.332;2022-10-22T05:28:52;97881.34;;;8.79;100.00
75717;BME280;64333;50.138;14.332;2022-10-22T05:31:18;97891.53;;;8.82;100.00
75717;BME280;64333;50.138;14.332;2022-10-22T05:33:44;97889.88;;;8.81;100.00
75717;BME280;64333;50.138;14.332;2022-10-22T05:36:16;97894.88;;;8.84;100.00
75717;BME280;64333;50.138;14.332;2022-10-22T05:38:41;97906.72;;;8.88;100.00
75717;BME280;64333;50.138;14.332;2022-10-22T05:41:12;97906.47;;;8.94;100.00
75717;BME280;64333;50.138;14.332;2022-10-22T05:43:38;97915.06;;;8.93;100.00
75717;BME280;64333;50.138;14.332;2022-10-22T05:46:09;97915.22;;;8.90;100.00
75717;BME280;64333;50.138;14.332;2022-10-22T05:48:35;97922.19;;;8.88;100.00
75717;BME280;64333;50.138;14.332;2022-10-22T05:51:04;97915.34;;;8.87;100.00
75717;BME280;64333;50.138;14.332;2022-10-22T05:53:32;97919.47;;;8.91;100.00
75717;BME280;64333;50.138;14.332;2022-10-22T05:56:01;97916.13;;;8.89;100.00
75717;BME280;64333;50.138;14.332;2022-10-22T05:58:28;97894.47;;;8.93;100.00
75717;BME280;64333;50.138;14.332;2022-10-22T06:00:53;97911.06;;;9.06;100.00
75717;BME280;64333;50.138;14.332;2022-10-22T06:03:19;97898.84;;;8.91;98.76
75717;BME280;64333;50.138;14.332;2022-10-22T06:05:44;97905.03;;;8.87;100.00
75717;BME280;64333;50.138;14.332;2022-10-22T06:08:12;97906.59;;;8.91;100.00
75717;BME280;64333;50.138;14.332;2022-10-22T06:10:40;97909.91;;;8.93;99.59
75717;BME280;64333;50.138;14.332;2022-10-22T06:13:06;97911.72;;;8.91;99.28
75717;BME280;64333;50.138;14.332;2022-10-22T06:15:32;97923.00;;;8.88;99.18
75717;BME280;64333;50.138;14.332;2022-10-22T06:17:58;97931.19;;;8.78;99.05
75717;BME280;64333;50.138;14.332;2022-10-22T06:20:23;97940.78;;;8.74;100.00
75717;BME280;64333;50.138;14.332;2022-10-22T06:22:49;97927.84;;;8.76;100.00
75717;BME280;64333;50.138;14.332;2022-10-22T06:25:14;97942.63;;;8.91;100.00
75717;BME280;64333;50.138;14.332;2022-10-22T06:27:40;97940.06;;;8.91;100.00
75717;BME280;64333;50.138;14.332;2022-10-22T06:30:06;97934.59;;;8.98;100.00
75717;BME280;64333;50.138;14.332;2022-10-22T06:32:31;97937.47;;;9.11;100.00
75717;BME280;64333;50.138;14.332;2022-10-22T06:34:56;97941.38;;;9.19;100.00
75717;BME280;64333;50.138;14.332;2022-10-22T06:37:22;97954.91;;;9.24;100.00
75717;BME280;64333;50.138;14.332;2022-10-22T06:39:47;97963.34;;;9.28;99.99
75717;BME280;64333;50.138;14.332;2022-10-22T06:42:12;97947.75;;;9.31;99.09
75717;BME280;64333;50.138;14.332;2022-10-22T06:44:38;97950.19;;;9.34;97.81
75717;BME280;64333;50.138;14.332;2022-10-22T06:47:03;97948.22;;;9.39;97.84
75717;BME280;64333;50.138;14.332;2022-10-22T06:49:29;97938.72;;;9.41;98.56
75717;BME280;64333;50.138;14.332;2022-10-22T06:51:54;97953.47;;;9.37;98.14
75717;BME280;64333;50.138;14.332;2022-10-22T06:54:20;97952.63;;;9.37;97.92
75717;BME280;64333;50.138;14.332;2022-10-22T06:56:46;97943.72;;;9.44;96.89
75717;BME280;64333;50.138;14.332;2022-10-22T06:59:11;97934.25;;;9.44;96.25
75717;BME280;64333;50.138;14.332;2022-10-22T07:01:38;97959.66;;;9.52;96.49
75717;BME280;64333;50.138;14.332;2022-10-22T07:04:04;97951.66;;;9.39;96.70
75717;BME280;64333;50.138;14.332;2022-10-22T07:06:30;97968.63;;;9.43;97.02
75717;BME280;64333;50.138;14.332;2022-10-22T07:08:57;97979.53;;;9.50;97.22
75717;BME280;64333;50.138;14.332;2022-10-22T07:11:28;97977.06;;;9.47;97.32
75717;BME280;64333;50.138;14.332;2022-10-22T07:13:55;97990.25;;;9.41;97.48
75717;BME280;64333;50.138;14.332;2022-10-22T07:16:21;97986.88;;;9.39;99.47
75717;BME280;64333;50.138;14.332;2022-10-22T07:18:47;97987.03;;;9.36;98.33
75717;BME280;64333;50.138;14.332;2022-10-22T07:21:15;97989.41;;;9.40;98.42
75717;BME280;64333;50.138;14.332;2022-10-22T07:23:40;97990.25;;;9.41;98.88
75717;BME280;64333;50.138;14.332;2022-10-22T07:26:06;97990.69;;;9.50;99.04
75717;BME280;64333;50.138;14.332;2022-10-22T07:28:33;97978.25;;;9.40;99.80
75717;BME280;64333;50.138;14.332;2022-10-22T07:30:59;97985.25;;;9.56;100.00
75717;BME280;64333;50.138;14.332;2022-10-22T07:33:25;97991.72;;;9.65;98.98
75717;BME280;64333;50.138;14.332;2022-10-22T07:35:56;97995.00;;;9.68;99.35
75717;BME280;64333;50.138;14.332;2022-10-22T07:38:22;97999.06;;;9.74;99.29
75717;BME280;64333;50.138;14.332;2022-10-22T07:40:47;98009.88;;;9.82;99.40
75717;BME280;64333;50.138;14.332;2022-10-22T07:43:13;98001.06;;;9.86;100.00
75717;BME280;64333;50.138;14.332;2022-10-22T07:45:38;98002.56;;;9.91;100.00
75717;BME280;64333;50.138;14.332;2022-10-22T07:48:06;98016.50;;;10.06;100.00
75717;BME280;64333;50.138;14.332;2022-10-22T07:50:31;98013.75;;;10.10;99.24
75717;BME280;64333;50.138;14.332;2022-10-22T07:52:57;98006.47;;;10.18;99.41
75717;BME280;64333;50.138;14.332;2022-10-22T07:55:22;97999.91;;;10.30;98.17
75717;BME280;64333;50.138;14.332;2022-10-22T07:57:48;97995.72;;;10.27;99.06
75717;BME280;64333;50.138;14.332;2022-10-22T08:00:15;97998.63;;;10.38;99.00
75717;BME280;64333;50.138;14.332;2022-10-22T08:02:40;98004.34;;;10.45;99.48
75717;BME280;64333;50.138;14.332;2022-10-22T08:05:06;98016.50;;;10.43;99.52
75717;BME280;64333;50.138;14.332;2022-10-22T08:07:32;98016.03;;;10.52;100.00
75717;BME280;64333;50.138;14.332;2022-10-22T08:09:57;98021.59;;;10.61;98.92
75717;BME280;64333;50.138;14.332;2022-10-22T08:12:23;98015.56;;;10.79;98.22
75717;BME280;64333;50.138;14.332;2022-10-22T08:14:48;98020.13;;;10.91;96.47
75717;BME280;64333;50.138;14.332;2022-10-22T08:17:13;98030.53;;;10.89;96.36
75717;BME280;64333;50.138;14.332;2022-10-22T08:19:39;98042.59;;;10.89;95.72
75717;BME280;64333;50.138;14.332;2022-10-22T08:22:04;98039.81;;;10.93;96.50
75717;BME280;64333;50.138;14.332;2022-10-22T08:24:30;98033.41;;;10.83;95.91
75717;BME280;64333;50.138;14.332;2022-10-22T08:26:55;98044.97;;;10.93;95.72
75717;BME280;64333;50.138;14.332;2022-10-22T08:29:22;98049.00;;;10.99;95.28
75717;BME280;64333;50.138;14.332;2022-10-22T08:31:48;98054.84;;;11.02;95.62
75717;BME280;64333;50.138;14.332;2022-10-22T08:34:14;98030.91;;;10.99;95.97
75717;BME280;64333;50.138;14.332;2022-10-22T08:36:39;98036.94;;;10.99;96.22
75717;BME280;64333;50.138;14.332;2022-10-22T08:39:05;98040.78;;;11.08;96.18
75717;BME280;64333;50.138;14.332;2022-10-22T08:41:40;98056.06;;;11.12;94.80
75717;BME280;64333;50.138;14.332;2022-10-22T08:50:17;98048.00;;;11.35;94.00
75717;BME280;64333;50.138;14.332;2022-10-22T08:52:45;98044.94;;;11.44;92.57
75717;BME280;64333;50.138;14.332;2022-10-22T08:55:15;98042.50;;;11.58;93.09
75717;BME280;64333;50.138;14.332;2022-10-22T09:00:35;98047.97;;;11.69;92.70
75717;BME280;64333;50.138;14.332;2022-10-22T09:06:16;98038.41;;;11.87;92.54
75717;BME280;64333;50.138;14.332;2022-10-22T09:08:44;98035.31;;;11.80;92.45
75717;BME280;64333;50.138;14.332;2022-10-22T09:11:38;98038.16;;;11.76;92.48
75717;BME280;64333;50.138;14.332;2022-10-22T09:14:04;98045.50;;;11.83;92.42
75717;BME280;64333;50.138;14.332;2022-10-22T09:19:24;98039.25;;;11.87;94.06
75717;BME280;64333;50.138;14.332;2022-10-22T09:22:14;98039.19;;;12.04;93.08
75717;BME280;64333;50.138;14.332;2022-10-22T09:24:45;98043.72;;;12.16;92.36
75717;BME280;64333;50.138;14.332;2022-10-22T09:27:20;98036.34;;;12.24;92.08
75717;BME280;64333;50.138;14.332;2022-10-22T09:29:48;98035.44;;;12.25;92.26
75717;BME280;64333;50.138;14.332;2022-10-22T09:32:15;98036.22;;;12.27;93.29
75717;BME280;64333;50.138;14.332;2022-10-22T09:34:43;98025.97;;;12.71;91.68
75717;BME280;64333;50.138;14.332;2022-10-22T09:37:09;98024.03;;;12.74;91.35
75717;BME280;64333;50.138;14.332;2022-10-22T09:39:39;98021.38;;;13.05;89.62
75717;BME280;64333;50.138;14.332;2022-10-22T09:42:06;98027.25;;;13.09;88.35
75717;BME280;64333;50.138;14.332;2022-10-22T09:44:36;98031.78;;;13.49;87.14
75717;BME280;64333;50.138;14.332;2022-10-22T09:47:06;98033.72;;;14.01;84.76
75717;BME280;64333;50.138;14.332;2022-10-22T09:49:34;98017.41;;;14.54;82.06
75717;BME280;64333;50.138;14.332;2022-10-22T09:52:00;98019.34;;;15.03;80.22
75717;BME280;64333;50.138;14.332;2022-10-22T09:54:38;98031.06;;;15.98;76.25
75717;BME280;64333;50.138;14.332;2022-10-22T09:57:20;98034.94;;;18.24;68.06
75717;BME280;64333;50.138;14.332;2022-10-22T09:59:50;98026.34;;;18.55;66.09
75717;BME280;64333;50.138;14.332;2022-10-22T10:02:26;98027.59;;;18.18;65.74
75717;BME280;64333;50.138;14.332;2022-10-22T10:04:54;98033.88;;;18.37;65.79
75717;BME280;64333;50.138;14.332;2022-10-22T10:07:26;98033.97;;;18.03;66.93
75717;BME280;64333;50.138;14.332;2022-10-22T10:09:54;98039.78;;;19.04;64.40
75717;BME280;64333;50.138;14.332;2022-10-22T10:12:38;98045.16;;;20.84;59.26
75717;BME280;64333;50.138;14.332;2022-10-22T10:15:21;98061.13;;;24.66;49.55
75717;BME280;64333;50.138;14.332;2022-10-22T10:18:11;98049.59;;;23.40;51.92
75717;BME280;64333;50.138;14.332;2022-10-22T10:23:56;98043.03;;;20.19;61.16
75717;BME280;64333;50.138;14.332;2022-10-22T10:26:47;98062.22;;;20.99;60.10
75717;BME280;64333;50.138;14.332;2022-10-22T10:46:49;98052.06;;;25.74;47.58
75717;BME280;64333;50.138;14.332;2022-10-22T10:49:22;98045.22;;;24.50;49.55
75717;BME280;64333;50.138;14.332;2022-10-22T10:52:15;98046.25;;;22.86;53.39
75717;BME280;64333;50.138;14.332;2022-10-22T10:55:21;98051.19;;;22.71;53.41
75717;BME280;64333;50.138;14.332;2022-10-22T11:00:52;98043.28;;;22.89;52.50
75717;BME280;64333;50.138;14.332;2022-10-22T11:06:19;98045.69;;;22.28;54.45
75717;BME280;64333;50.138;14.332;2022-10-22T11:11:30;98038.59;;;23.10;51.83
75717;BME280;64333;50.138;14.332;2022-10-22T11:14:15;98033.47;;;23.43;50.71
75717;BME280;64333;50.138;14.332;2022-10-22T11:16:50;98031.97;;;23.41;51.22
75717;BME280;64333;50.138;14.332;2022-10-22T11:19:33;98013.72;;;22.95;54.22
75717;BME280;64333;50.138;14.332;2022-10-22T11:27:41;98008.16;;;20.28;59.18
75717;BME280;64333;50.138;14.332;2022-10-22T11:30:17;98018.88;;;20.65;59.02
75717;BME280;64333;50.138;14.332;2022-10-22T11:32:50;98021.31;;;20.38;59.76
75717;BME280;64333;50.138;14.332;2022-10-22T11:35:22;98021.59;;;19.84;61.84
75717;BME280;64333;50.138;14.332;2022-10-22T11:37:48;98023.47;;;18.69;64.84
75717;BME280;64333;50.138;14.332;2022-10-22T11:40:19;98017.94;;;18.29;67.73
75717;BME280;64333;50.138;14.332;2022-10-22T11:42:52;98013.34;;;18.33;67.30
75717;BME280;64333;50.138;14.332;2022-10-22T11:50:50;98000.66;;;18.91;66.23
75717;BME280;64333;50.138;14.332;2022-10-22T11:56:02;98012.97;;;21.39;58.14
75717;BME280;64333;50.138;14.332;2022-10-22T12:21:34;98041.00;;;20.72;59.19
75717;BME280;64333;50.138;14.332;2022-10-22T12:24:02;98030.75;;;19.49;62.45
75717;BME280;64333;50.138;14.332;2022-10-22T12:26:30;98036.84;;;19.49;63.39
75717;BME280;64333;50.138;14.332;2022-10-22T12:28:59;98038.75;;;18.53;66.95
75717;BME280;64333;50.138;14.332;2022-10-22T12:31:25;98032.53;;;17.77;69.73
75717;BME280;64333;50.138;14.332;2022-10-22T12:33:58;98037.75;;;17.44;72.11
75717;BME280;64333;50.138;14.332;2022-10-22T12:36:28;98027.56;;;17.28;72.81
75717;BME280;64333;50.138;14.332;2022-10-22T12:38:58;98017.44;;;17.13;72.28
75717;BME280;64333;50.138;14.332;2022-10-22T12:41:35;98030.28;;;16.92;73.62
75717;BME280;64333;50.138;14.332;2022-10-22T12:44:04;98043.28;;;17.05;72.92
75717;BME280;64333;50.138;14.332;2022-10-22T12:46:32;98033.44;;;17.08;73.02
75717;BME280;64333;50.138;14.332;2022-10-22T12:49:04;98045.91;;;20.46;60.84
75717;BME280;64333;50.138;14.332;2022-10-22T12:51:31;98028.31;;;20.96;57.93
75717;BME280;64333;50.138;14.332;2022-10-22T12:54:01;98033.56;;;21.43;55.92
75717;BME280;64333;50.138;14.332;2022-10-22T12:56:31;98046.31;;;21.00;56.71
75717;BME280;64333;50.138;14.332;2022-10-22T12:59:04;98040.06;;;19.83;61.12
75717;BME280;64333;50.138;14.332;2022-10-22T13:01:37;98042.44;;;18.93;64.21
75717;BME280;64333;50.138;14.332;2022-10-22T13:06:51;98050.97;;;19.37;62.43
75717;BME280;64333;50.138;14.332;2022-10-22T13:09:23;98057.22;;;21.62;55.84
75717;BME280;64333;50.138;14.332;2022-10-22T13:12:05;98050.19;;;24.20;49.04
75717;BME280;64333;50.138;14.332;2022-10-22T13:14:32;98054.53;;;24.03;48.17
75717;BME280;64333;50.138;14.332;2022-10-22T13:17:12;98061.56;;;24.20;47.84
75717;BME280;64333;50.138;14.332;2022-10-22T13:19:43;98060.38;;;22.67;51.58
75717;BME280;64333;50.138;14.332;2022-10-22T13:24:53;98060.72;;;21.25;56.00
75717;BME280;64333;50.138;14.332;2022-10-22T13:27:21;98060.50;;;20.39;57.88
75717;BME280;64333;50.138;14.332;2022-10-22T13:29:47;98057.22;;;19.46;61.46
75717;BME280;64333;50.138;14.332;2022-10-22T13:32:32;98048.88;;;18.89;63.64
75717;BME280;64333;50.138;14.332;2022-10-22T13:35:00;98052.00;;;19.46;62.53
75717;BME280;64333;50.138;14.332;2022-10-22T13:37:28;98056.69;;;20.13;60.49
75717;BME280;64333;50.138;14.332;2022-10-22T13:39:55;98064.94;;;20.39;59.78
75717;BME280;64333;50.138;14.332;2022-10-22T13:42:20;98057.41;;;21.13;57.12
75717;BME280;64333;50.138;14.332;2022-10-22T13:44:46;98046.31;;;21.00;57.19
75717;BME280;64333;50.138;14.332;2022-10-22T13:47:37;98063.16;;;21.36;56.33
75717;BME280;64333;50.138;14.332;2022-10-22T13:50:11;98061.22;;;20.90;58.71
75717;BME280;64333;50.138;14.332;2022-10-22T13:52:39;98061.25;;;21.28;56.87
75717;BME280;64333;50.138;14.332;2022-10-22T13:55:13;98059.19;;;21.70;55.33
75717;BME280;64333;50.138;14.332;2022-10-22T13:57:39;98050.56;;;23.22;52.02
75717;BME280;64333;50.138;14.332;2022-10-22T14:00:05;98060.19;;;22.96;52.75
75717;BME280;64333;50.138;14.332;2022-10-22T14:02:30;98058.56;;;23.30;52.32
75717;BME280;64333;50.138;14.332;2022-10-22T14:04:56;98060.09;;;22.88;53.13
75717;BME280;64333;50.138;14.332;2022-10-22T14:07:27;98062.97;;;23.12;53.06
75717;BME280;64333;50.138;14.332;2022-10-22T14:09:53;98063.81;;;22.68;53.99
75717;BME280;64333;50.138;14.332;2022-10-22T14:12:21;98060.03;;;22.07;55.60
75717;BME280;64333;50.138;14.332;2022-10-22T14:14:46;98054.78;;;21.23;57.38
75717;BME280;64333;50.138;14.332;2022-10-22T14:17:13;98066.91;;;20.16;61.60
75717;BME280;64333;50.138;14.332;2022-10-22T14:19:43;98075.06;;;21.21;58.37
75717;BME280;64333;50.138;14.332;2022-10-22T14:22:18;98076.72;;;21.12;58.15
75717;BME280;64333;50.138;14.332;2022-10-22T14:24:45;98074.66;;;20.18;61.51
75717;BME280;64333;50.138;14.332;2022-10-22T14:27:12;98069.72;;;20.04;61.85
75717;BME280;64333;50.138;14.332;2022-10-22T14:29:39;98069.56;;;19.55;63.81
75717;BME280;64333;50.138;14.332;2022-10-22T14:32:13;98062.50;;;18.61;66.52
75717;BME280;64333;50.138;14.332;2022-10-22T14:34:39;98056.25;;;18.41;67.73
75717;BME280;64333;50.138;14.332;2022-10-22T14:37:14;98066.78;;;18.07;70.37
75717;BME280;64333;50.138;14.332;2022-10-22T14:39:40;98070.34;;;17.95;70.68
75717;BME280;64333;50.138;14.332;2022-10-22T14:42:09;98056.28;;;17.63;71.68
75717;BME280;64333;50.138;14.332;2022-10-22T14:44:35;98068.03;;;17.57;72.24
75717;BME280;64333;50.138;14.332;2022-10-22T14:47:00;98058.03;;;17.51;72.19
75717;BME280;64333;50.138;14.332;2022-10-22T14:49:26;98069.81;;;17.33;72.58
75717;BME280;64333;50.138;14.332;2022-10-22T14:51:51;98064.78;;;17.43;72.45